Happy Valentine's Day! 

Flight Track Log - Related Links

Times and Time Zones

All times are in EDT time to prevent confusion due to time zone crossing. See the BER3440 flight status page for this flight to view local times or setup timezone preferences in your user account.


Time Position Orientation Groundspeed Altitude Reporting Facility
EDT Latitude Longitude Course Direction KTS MPH feet Rate Location/Type
Mon 04:59:51 AM 52.5600 13.2980 270° West 105 121  Level FlightAware ADS-B
Mon 05:02:03 AM 52.5440 13.1300 261° West 254 292 3,600 2,013 Climbing FlightAware ADS-B
Mon 05:02:23 AM 52.5400 13.0850 262° West 252 290 5,100 4,875 Climbing FlightAware ADS-B
Mon 05:02:35 AM 52.5330 13.0530 250° West 255 293 6,200 4,759 Climbing FlightAware ADS-B
Mon 05:02:52 AM 52.5130 13.0190 226° Southwest 262 302 7,400 3,467 Climbing FlightAware ADS-B
Mon 05:03:20 AM 52.4870 12.9830 220° Southwest 274 315 8,800 3,171 Climbing FlightAware ADS-B
Mon 05:04:02 AM 52.4460 12.9240 221° Southwest 279 321 11,100 3,225 Climbing FlightAware ADS-B
Mon 05:04:40 AM 52.4070 12.8690 221° Southwest 287 330 13,100 2,372 Climbing FlightAware ADS-B
Mon 05:05:28 AM 52.3580 12.7980 222° Southwest 328 377 14,500 1,500 Climbing FlightAware ADS-B
Mon 05:06:00 AM 52.3190 12.7410 222° Southwest 367 422 15,100 2,083 Climbing FlightAware ADS-B
Mon 05:06:40 AM 52.2680 12.6650 222° Southwest 371 427 17,000 2,860 Climbing FlightAware ADS-B
Mon 05:07:26 AM 52.2100 12.5820 221° Southwest 370 426 19,200 2,775 Climbing FlightAware ADS-B
Mon 05:08:00 AM 52.1650 12.5170 222° Southwest 373 429 20,700 2,447 Climbing FlightAware ADS-B
Mon 05:08:42 AM 52.1130 12.4430 221° Southwest 376 433 22,300 2,265 Climbing FlightAware ADS-B
Mon 05:09:38 AM 52.0370 12.3360 221° Southwest 378 435 24,400 2,044 Climbing FlightAware ADS-B
Mon 05:10:13 AM 51.9910 12.2700 221° Southwest 383 441 25,400 2,354 Climbing FlightAware ADS-B
Mon 05:10:57 AM 51.9320 12.1870 221° Southwest 364 419 27,500 2,512 Climbing FlightAware ADS-B
Mon 05:11:39 AM 51.8820 12.1170 221° Southwest 353 406 29,000 1,630 Climbing FlightAware ADS-B
Mon 05:12:18 AM 51.8310 12.0460 221° Southwest 367 422 29,700 1,125 Climbing FlightAware ADS-B
Mon 05:12:59 AM 51.7790 11.9720 221° Southwest 377 434 30,500 1,071 Climbing FlightAware ADS-B
Mon 05:13:42 AM 51.7210 11.8910 221° Southwest 386 444 31,200 1,034 Climbing FlightAware ADS-B
Mon 05:14:26 AM 51.6600 11.8070 221° Southwest 396 456 32,000 1,050 Climbing FlightAware ADS-B
Mon 05:15:02 AM 51.6090 11.7370 220° Southwest 402 463 32,600 1,105 Climbing FlightAware ADS-B
Mon 05:15:42 AM 51.5520 11.6580 221° Southwest 405 466 33,400 1,143 Climbing FlightAware ADS-B
Mon 05:16:26 AM 51.4910 11.5750 220° Southwest 401 461 34,200 1,071 Climbing FlightAware ADS-B
Mon 05:17:06 AM 51.4330 11.4960 220° Southwest 400 460 34,900 1,071 Climbing FlightAware ADS-B
Mon 05:17:50 AM 51.3640 11.4350 209° Southwest 392 451 35,700 1,071 Climbing FlightAware ADS-B
Mon 05:18:30 AM 51.2930 11.4100 192° South 392 451 36,400 1,000 Climbing FlightAware ADS-B
Mon 05:19:14 AM 51.2170 11.3830 193° South 389 448 37,100 1,026 Climbing FlightAware ADS-B
Mon 05:19:46 AM 51.1610 11.3630 193° South 386 444 37,700 789 Climbing FlightAware ADS-B
Mon 05:20:30 AM 51.0840 11.3360 192° South 390 449 38,100 214 Climbing FlightAware ADS-B
Mon 05:21:10 AM 51.0130 11.3110 192° South 394 453 38,000 -79 Descending FlightAware ADS-B
Mon 05:21:46 AM 50.9500 11.2890 192° South 394 453 38,000  Level FlightAware ADS-B
Mon 05:22:29 AM 50.8720 11.2630 192° South 395 455 38,000  Level FlightAware ADS-B
Mon 05:23:10 AM 50.7990 11.2380 192° South 394 453 38,000  Level FlightAware ADS-B
Mon 05:23:54 AM 50.7230 11.2120 192° South 396 456 38,000  Level FlightAware ADS-B
Mon 05:24:33 AM 50.6520 11.1870 193° South 397 457 38,000  Level FlightAware ADS-B
Mon 05:25:17 AM 50.5720 11.1590 193° South 400 460 38,000  Level FlightAware ADS-B
Mon 05:25:57 AM 50.5000 11.1270 196° South 400 460 38,000  Level FlightAware ADS-B
Mon 05:26:37 AM 50.4370 11.0670 211° Southwest 396 456 38,000  Level FlightAware ADS-B
Mon 05:27:15 AM 50.3800 11.0080 213° Southwest 393 452 38,000  Level FlightAware ADS-B
Mon 05:27:59 AM 50.3160 10.9410 214° Southwest 392 451 38,000  Level FlightAware ADS-B
Mon 05:28:35 AM 50.2590 10.8830 213° Southwest 390 449 38,000  Level FlightAware ADS-B
Mon 05:29:09 AM 50.2120 10.8340 214° Southwest 390 449 38,000  Level FlightAware ADS-B
Mon 05:29:55 AM 50.1380 10.7580 213° Southwest 390 449 38,000  Level FlightAware ADS-B
Mon 05:30:35 AM 50.0790 10.6970 214° Southwest 393 452 38,000  Level FlightAware ADS-B
Mon 05:31:19 AM 50.0120 10.6290 213° Southwest 400 460 38,000  Level FlightAware ADS-B
Mon 05:32:03 AM 49.9440 10.5600 213° Southwest 405 466 38,000  Level FlightAware ADS-B
Mon 05:32:39 AM 49.8850 10.4990 214° Southwest 407 468 38,000  Level FlightAware ADS-B
Mon 05:33:25 AM 49.8140 10.4280 213° Southwest 403 464 38,000  Level FlightAware ADS-B
Mon 05:34:05 AM 49.7500 10.3630 213° Southwest 405 466 38,000  Level FlightAware ADS-B
Mon 05:34:46 AM 49.6900 10.3030 213° Southwest 406 467 38,000  Level FlightAware ADS-B
Mon 05:35:25 AM 49.6240 10.2360 213° Southwest 404 465 38,000  Level FlightAware ADS-B
Mon 05:36:10 AM 49.5550 10.1680 213° Southwest 405 466 38,000  Level FlightAware ADS-B
Mon 05:36:57 AM 49.4740 10.0870 213° Southwest 413 475 38,000  Level FlightAware ADS-B
Mon 05:37:33 AM 49.4150 10.0290 213° Southwest 414 476 38,000  Level FlightAware ADS-B
Mon 05:38:18 AM 49.3450 9.9600 213° Southwest 415 478 38,000  Level FlightAware ADS-B
Mon 05:39:02 AM 49.2730 9.8880 213° Southwest 416 479 38,000 159 Level FlightAware ADS-B
Mon 05:40:11 AM 49.1600 9.7780 212° Southwest 414 476 38,300 486 Climbing FlightAware ADS-B
Mon 05:40:53 AM 49.0930 9.7130 212° Southwest 410 472 38,900 500 Climbing FlightAware ADS-B
Mon 05:41:35 AM 49.0260 9.6470 213° Southwest 416 479 39,000 70 Climbing FlightAware ADS-B
Mon 05:42:19 AM 48.9540 9.5770 213° Southwest 419 482 39,000  Level FlightAware ADS-B
Mon 05:42:58 AM 48.8900 9.5160 212° Southwest 420 483 39,000  Level FlightAware ADS-B
Mon 05:43:43 AM 48.8160 9.4440 213° Southwest 420 483 39,000  Level FlightAware ADS-B
Mon 05:44:23 AM 48.7500 9.3810 212° Southwest 413 475 39,000  Level FlightAware ADS-B
Mon 05:45:03 AM 48.6880 9.3210 213° Southwest 405 466 39,000  Level FlightAware ADS-B
Mon 05:45:48 AM 48.6180 9.2490 214° Southwest 403 464 39,000  Level FlightAware ADS-B
Mon 05:46:33 AM 48.5660 9.1500 232° Southwest 404 465 39,000  Level FlightAware ADS-B
Mon 05:47:13 AM 48.5180 9.0700 228° Southwest 404 465 39,000  Level FlightAware ADS-B
Mon 05:47:43 AM 48.4730 9.0150 219° Southwest 407 468 39,000  Level FlightAware ADS-B
Mon 05:48:28 AM 48.4080 8.9350 219° Southwest 407 468 39,000  Level FlightAware ADS-B
Mon 05:49:13 AM 48.3420 8.8550 219° Southwest 406 467 39,000  Level FlightAware ADS-B
Mon 05:49:48 AM 48.2910 8.7930 219° Southwest 407 468 39,000  Level FlightAware ADS-B
Mon 05:50:28 AM 48.2340 8.7240 219° Southwest 405 466 39,000  Level FlightAware ADS-B
Mon 05:51:13 AM 48.1690 8.6450 219° Southwest 402 463 39,000  Level FlightAware ADS-B
Mon 05:51:46 AM 48.1280 8.5950 219° Southwest 394 453 39,000  Level FlightAware ADS-B
Mon 05:52:31 AM 48.0660 8.5220 218° Southwest 390 449 39,000  Level FlightAware ADS-B
Mon 05:53:11 AM 48.0100 8.4530 220° Southwest 385 443 39,000  Level FlightAware ADS-B
Mon 05:53:51 AM 47.9570 8.3910 218° Southwest 382 440 39,000  Level FlightAware ADS-B
Mon 05:54:32 AM 47.8900 8.3110 219° Southwest 378 435 39,000  Level FlightAware ADS-B
Mon 05:55:18 AM 47.8280 8.2370 219° Southwest 378 435 39,000  Level FlightAware ADS-B
Mon 05:55:57 AM 47.7710 8.1710 218° Southwest 377 434 39,000  Level FlightAware ADS-B
Mon 05:56:42 AM 47.7090 8.0970 219° Southwest 377 434 39,000  Level FlightAware ADS-B
Mon 05:57:17 AM 47.6610 8.0400 219° Southwest 376 433 39,000  Level FlightAware ADS-B
Mon 05:58:03 AM 47.5980 7.9670 218° Southwest 375 432 39,000  Level FlightAware ADS-B
Mon 05:58:44 AM 47.5430 7.9020 219° Southwest 375 432 39,000  Level FlightAware ADS-B
Mon 05:59:28 AM 47.4810 7.8290 219° Southwest 376 433 39,000  Level FlightAware ADS-B
Mon 06:00:13 AM 47.4160 7.7540 218° Southwest 377 434 39,000  Level FlightAware ADS-B
Mon 06:00:48 AM 47.3680 7.6990 218° Southwest 377 434 39,000  Level FlightAware ADS-B
Mon 06:01:33 AM 47.3030 7.6330 215° Southwest 383 441 39,000  Level FlightAware ADS-B
Mon 06:02:13 AM 47.2440 7.5780 212° Southwest 385 443 39,000  Level FlightAware ADS-B
Mon 06:02:58 AM 47.1780 7.5150 213° Southwest 385 443 39,000  Level FlightAware ADS-B
Mon 06:03:41 AM 47.1050 7.4450 213° Southwest 392 451 39,000  Level FlightAware ADS-B
Mon 06:04:21 AM 47.0440 7.3870 213° Southwest 392 451 39,000  Level FlightAware ADS-B
Mon 06:05:07 AM 46.9740 7.3210 213° Southwest 392 451 39,000  Level FlightAware ADS-B
Mon 06:05:47 AM 46.9140 7.2650 213° Southwest 393 452 39,000  Level FlightAware ADS-B
Mon 06:06:31 AM 46.8450 7.2000 213° Southwest 394 453 39,000  Level FlightAware ADS-B
Mon 06:07:11 AM 46.7840 7.1420 213° Southwest 394 453 39,000  Level FlightAware ADS-B
Mon 06:07:51 AM 46.7230 7.0860 212° Southwest 397 457 39,000  Level FlightAware ADS-B
Mon 06:08:35 AM 46.6540 7.0210 213° Southwest 401 461 39,000  Level FlightAware ADS-B
Mon 06:09:19 AM 46.5840 6.9570 212° Southwest 404 465 39,000  Level FlightAware ADS-B
Mon 06:09:57 AM 46.5240 6.9000 213° Southwest 408 470 39,000  Level FlightAware ADS-B
Mon 06:10:43 AM 46.4500 6.8320 212° Southwest 411 473 39,000  Level FlightAware ADS-B
Mon 06:11:21 AM 46.3890 6.7760 212° Southwest 411 473 39,000  Level FlightAware ADS-B
Mon 06:12:05 AM 46.3190 6.7110 213° Southwest 412 474 39,000  Level FlightAware ADS-B
Mon 06:12:45 AM 46.2590 6.6560 212° Southwest 414 476 39,000  Level FlightAware ADS-B
Mon 06:13:31 AM 46.1800 6.5840 212° Southwest 417 480 39,000  Level FlightAware ADS-B
Mon 06:14:11 AM 46.1140 6.5240 212° Southwest 419 482 39,000  Level FlightAware ADS-B
Mon 06:14:47 AM 46.0560 6.4710 212° Southwest 421 484 39,000  Level FlightAware ADS-B
Mon 06:15:29 AM 45.9870 6.4090 212° Southwest 424 488 39,000  Level FlightAware ADS-B
Mon 06:16:09 AM 45.9130 6.3670 202° Southwest 426 490 39,000  Level FlightAware ADS-B
Mon 06:16:49 AM 45.8370 6.3290 199° South 429 494 39,000  Level FlightAware ADS-B
Mon 06:17:33 AM 45.7540 6.2870 199° South 430 495 39,000  Level FlightAware ADS-B
Mon 06:18:13 AM 45.6820 6.2510 199° South 427 491 39,000  Level FlightAware ADS-B
Mon 06:19:00 AM 45.5960 6.2080 199° South 425 489 39,000  Level FlightAware ADS-B
Mon 06:19:36 AM 45.5270 6.1730 200° South 425 489 39,000  Level FlightAware ADS-B
Mon 06:19:56 AM 45.4880 6.1550 198° South 426 490 39,000  Level FlightAware ADS-B
Mon 06:20:54 AM 45.4040 6.1130 199° South 426 490 39,000  Level FlightAware ADS-B
Mon 06:21:41 AM 45.2950 6.0580 200° South 427 491 39,000  Level FlightAware ADS-B
Mon 06:22:25 AM 45.2130 6.0180 199° South 428 493 39,000  Level FlightAware ADS-B
Mon 06:23:01 AM 45.1430 5.9810 200° South 429 494 39,000  Level FlightAware ADS-B
Mon 06:24:17 AM 45.0020 5.9060 201° Southwest 431 496 39,000  Level FlightAware ADS-B
Mon 06:24:58 AM 44.9270 5.8650 201° Southwest 430 495 39,000  Level FlightAware ADS-B
Mon 06:25:42 AM 44.8440 5.8220 200° South 430 495 39,000  Level FlightAware ADS-B
Mon 06:26:18 AM 44.7760 5.7860 201° Southwest 429 494 39,000  Level FlightAware ADS-B
Mon 06:27:06 AM 44.6880 5.7400 200° South 430 495 39,000  Level FlightAware ADS-B
Mon 06:27:46 AM 44.6130 5.7000 201° Southwest 430 495 39,000  Level FlightAware ADS-B
Mon 06:28:31 AM 44.5310 5.6570 200° South 430 495 39,000  Level FlightAware ADS-B
Mon 06:29:11 AM 44.4550 5.6180 200° South 430 495 39,000  Level FlightAware ADS-B
Mon 06:29:47 AM 44.3880 5.5830 200° South 430 495 39,000  Level FlightAware ADS-B
Mon 06:30:27 AM 44.3150 5.5450 200° South 430 495 39,000  Level FlightAware ADS-B
Mon 06:31:11 AM 44.2310 5.5020 200° South 430 495 39,000  Level FlightAware ADS-B
Mon 06:31:51 AM 44.1560 5.4630 200° South 432 497 39,000  Level FlightAware ADS-B
Mon 06:32:31 AM 44.0810 5.4250 200° South 435 501 39,000  Level FlightAware ADS-B
Mon 06:33:15 AM 43.9990 5.3830 200° South 432 497 39,000  Level FlightAware ADS-B
Mon 06:33:53 AM 43.9290 5.3460 201° Southwest 431 496 39,000  Level FlightAware ADS-B
Mon 06:34:35 AM 43.8510 5.3070 200° South 429 494 39,000  Level FlightAware ADS-B
Mon 06:35:15 AM 43.7810 5.2710 200° South 426 490 39,000  Level FlightAware ADS-B
Mon 06:35:56 AM 43.7080 5.2190 207° Southwest 422 486 39,000  Level FlightAware ADS-B
Mon 06:36:37 AM 43.6400 5.1670 209° Southwest 422 486 39,000  Level FlightAware ADS-B
Mon 06:37:15 AM 43.5670 5.1130 208° Southwest 422 486 39,000  Level FlightAware ADS-B
Mon 06:37:57 AM 43.4960 5.0600 208° Southwest 421 484 39,000  Level FlightAware ADS-B
Mon 06:38:35 AM 43.4310 5.0110 209° Southwest 420 483 39,000  Level FlightAware ADS-B
Mon 06:39:19 AM 43.3570 4.9570 208° Southwest 419 482 39,000  Level FlightAware ADS-B
Mon 06:40:04 AM 43.2770 4.8980 208° Southwest 422 486 39,000  Level FlightAware ADS-B
Mon 06:40:46 AM 43.2070 4.8460 208° Southwest 427 491 39,000  Level FlightAware ADS-B
Mon 06:41:22 AM 43.1430 4.8000 208° Southwest 431 496 39,000  Level FlightAware ADS-B
Mon 06:42:10 AM 43.0600 4.7390 208° Southwest 430 495 39,000  Level FlightAware ADS-B
Mon 06:42:50 AM 42.9880 4.6860 208° Southwest 430 495 39,000  Level FlightAware ADS-B
Mon 06:43:33 AM 42.9130 4.6310 208° Southwest 429 494 39,000  Level FlightAware ADS-B
Mon 06:44:11 AM 42.8470 4.5840 208° Southwest 426 490 39,000  Level FlightAware ADS-B
Mon 06:44:52 AM 42.7760 4.5330 208° Southwest 424 488 39,000  Level FlightAware ADS-B
Mon 06:45:37 AM 42.6960 4.4760 208° Southwest 420 483 39,000  Level FlightAware ADS-B
Mon 06:46:19 AM 42.6260 4.4250 208° Southwest 417 480 39,000  Level FlightAware ADS-B
Mon 06:47:53 AM 42.4810 4.3220 208° Southwest 414 476 39,000  Level FlightAware ADS-B
Mon 06:48:48 AM 42.3990 4.2630 208° Southwest 412 474 39,000  Level FlightAware ADS-B
Mon 06:49:35 AM 42.2960 4.1900 208° Southwest 408 470 39,000  Level FlightAware ADS-B
Mon 06:51:15 AM 42.1060 4.1120 196° South 420 483 39,000  Level FlightAware ADS-B
Mon 06:52:10 AM 42.0070 4.0740 196° South 422 486 39,000  Level FlightAware ADS-B
Mon 06:52:52 AM 41.9290 4.0440 196° South 417 480 39,000  Level FlightAware ADS-B
Mon 06:53:33 AM 41.8520 4.0140 196° South 416 479 39,000  Level FlightAware ADS-B
Mon 06:54:17 AM 41.7640 3.9800 196° South 421 484 39,000  Level FlightAware ADS-B
Mon 06:54:57 AM 41.6880 3.9510 196° South 424 488 39,000  Level FlightAware ADS-B
Mon 06:55:37 AM 41.6120 3.9220 196° South 426 490 39,000  Level FlightAware ADS-B
Mon 06:56:17 AM 41.5360 3.8930 196° South 426 490 39,000  Level FlightAware ADS-B
Mon 06:56:45 AM 41.4840 3.8730 196° South 427 491 39,000  Level FlightAware ADS-B
Mon 06:57:21 AM 41.4150 3.8470 196° South 426 490 39,000  Level FlightAware ADS-B
Mon 06:58:09 AM 41.3240 3.8130 196° South 425 489 39,000  Level FlightAware ADS-B
Mon 06:58:50 AM 41.2480 3.7840 196° South 426 490 39,000  Level FlightAware ADS-B
Mon 06:59:29 AM 41.1700 3.7650 190° South 436 502 39,000 -92 Level FlightAware ADS-B
Mon 06:59:55 AM 41.1190 3.7570 187° South 428 493 38,900 -684 Descending FlightAware ADS-B
Mon 07:00:48 AM 41.0240 3.7420 187° South 423 487 38,100 -1,320 Descending FlightAware ADS-B
Mon 07:01:35 AM 40.9220 3.7240 188° South 429 494 36,700 -1,724 Descending FlightAware ADS-B
Mon 07:02:15 AM 40.8430 3.7010 192° South 433 498 35,600 -971 Descending FlightAware ADS-B
Mon 07:03:20 AM 40.7540 3.6340 210° Southwest 430 495 35,000 -327 Descending FlightAware ADS-B
Mon 07:04:05 AM 40.6540 3.5570 210° Southwest 430 495 35,000  Level FlightAware ADS-B
Mon 07:04:45 AM 40.5850 3.5040 210° Southwest 431 496 35,000  Level FlightAware ADS-B
Mon 07:05:29 AM 40.5080 3.4450 210° Southwest 430 495 35,000  Level FlightAware ADS-B
Mon 07:05:57 AM 40.4620 3.4090 211° Southwest 430 495 35,000  Level FlightAware ADS-B
Mon 07:06:35 AM 40.3930 3.3650 206° Southwest 437 503 35,000  Level FlightAware ADS-B
Mon 07:07:19 AM 40.3110 3.3210 202° Southwest 439 505 35,000  Level FlightAware ADS-B
Mon 07:08:04 AM 40.2270 3.2750 203° Southwest 439 505 35,000  Level FlightAware ADS-B
Mon 07:08:41 AM 40.1570 3.2380 202° Southwest 437 503 35,000  Level FlightAware ADS-B
Mon 07:09:27 AM 40.0690 3.1910 202° Southwest 436 502 35,000 -67 Level FlightAware ADS-B
Mon 07:10:11 AM 39.9890 3.1480 202° Southwest 434 499 34,900 -571 Descending FlightAware ADS-B
Mon 07:10:51 AM 39.9160 3.1080 203° Southwest 433 498 34,200 -1,575 Descending FlightAware ADS-B
Mon 07:11:31 AM 39.8460 3.0580 209° Southwest 427 491 32,800 -2,242 Descending FlightAware ADS-B
Mon 07:12:30 AM 39.7450 2.9850 209° Southwest 410 472 30,500 -2,257 Descending FlightAware ADS-B
Mon 07:13:12 AM 39.6770 2.9370 209° Southwest 408 470 29,000 -2,240 Descending FlightAware ADS-B
Mon 07:13:45 AM 39.6210 2.8970 209° Southwest 401 461 27,700 -2,270 Descending FlightAware ADS-B
Mon 07:14:26 AM 39.5560 2.8490 210° Southwest 385 443 26,200 -2,122 Descending FlightAware ADS-B
Mon 07:15:07 AM 39.4920 2.8030 209° Southwest 384 442 24,800 -2,093 Descending FlightAware ADS-B
Mon 07:15:52 AM 39.4250 2.7470 213° Southwest 362 417 23,200 -2,138 Descending FlightAware ADS-B
Mon 07:16:34 AM 39.3940 2.6690 243° Southwest 346 398 21,700 -2,049 Descending FlightAware ADS-B
Mon 07:17:14 AM 39.3710 2.6000 247° West 342 394 20,400 -1,829 Descending FlightAware ADS-B
Mon 07:17:56 AM 39.3480 2.5330 246° West 336 387 19,200 -2,118 Descending FlightAware ADS-B
Mon 07:18:39 AM 39.3160 2.4380 246° West 327 376 17,400 -2,494 Descending FlightAware ADS-B
Mon 07:19:25 AM 39.2860 2.3590 244° Southwest 327 376 15,500 -2,000 Descending FlightAware ADS-B
Mon 07:20:21 AM 39.2480 2.2700 241° Southwest 334 384 14,000 -2,308 Descending FlightAware ADS-B
Mon 07:20:56 AM 39.2170 2.1990 241° Southwest 322 371 12,000 -2,519 Descending FlightAware ADS-B
Mon 07:21:42 AM 39.1850 2.1240 241° Southwest 312 359 10,600 -1,364 Descending FlightAware ADS-B
Mon 07:22:24 AM 39.1580 2.0630 240° Southwest 268 308 10,000 -1,333 Descending FlightAware ADS-B
Mon 07:23:12 AM 39.1350 2.0070 242° Southwest 274 315 8,600 -1,680 Descending FlightAware ADS-B
Mon 07:23:39 AM 39.1130 1.9570 240° Southwest 261 300 7,900 -1,301 Descending FlightAware ADS-B
Mon 07:24:35 AM 39.0830 1.8870 241° Southwest 251 289 6,800 -1,286 Descending FlightAware ADS-B
Mon 07:24:49 AM 39.0740 1.8650 242° Southwest 252 290 6,400 -1,231 Descending FlightAware ADS-B
Mon 07:25:14 AM 39.0590 1.8330 239° Southwest 248 285 6,000 -982 Descending FlightAware ADS-B
Mon 07:25:44 AM 39.0420 1.7980 238° Southwest 241 277 5,500 -1,315 Descending FlightAware ADS-B
Mon 07:26:27 AM 39.0160 1.7430 239° Southwest 240 276 4,400 -1,343 Descending FlightAware ADS-B
Mon 07:26:51 AM 39.0050 1.7140 244° Southwest 238 274 4,000 -947 Descending FlightAware ADS-B
Mon 07:27:24 AM 38.9890 1.6720 244° Southwest 229 264 3,500 -640 Descending FlightAware ADS-B
Mon 07:28:06 AM 38.9690 1.6240 242° Southwest 197 227 3,200 -448 Descending FlightAware ADS-B
Mon 07:28:31 AM 38.9580 1.5960 243° Southwest 191 220 3,000 -480 Descending FlightAware ADS-B
Mon 07:28:56 AM 38.9480 1.5710 243° Southwest 182 209 2,800 -545 Descending FlightAware ADS-B
Mon 07:29:26 AM 38.9380 1.5470 242° Southwest 178 205 2,500 -857 Descending FlightAware ADS-B
Mon 07:30:13 AM 38.9210 1.5030 244° Southwest 180 207 1,700 -1,021 Descending FlightAware ADS-B
Mon 07:32:00 AM 38.8729 1.3731 245° Southwest  Level Estimated
Mon 07:33:00 AM 38.8729 1.3731 229° Southwest  Level Estimated
Mon 07:34:00 AM 38.8729 1.3731 229° Southwest  Level Estimated
Mon 07:35:00 AM 38.8729 1.3731 229° Southwest  Level Estimated

Login

Don't have an account? Register now (free) for customized features, flight alerts, and more!